createdAt,value
2023-03-10T00:05:11.076Z,13.2
2023-03-10T00:10:58.096Z,10.7
2023-03-10T00:16:31.906Z,14.4
2023-03-10T00:21:41.320Z,11.9
2023-03-10T00:27:30.469Z,13.2
2023-03-10T00:33:06.780Z,9.6
2023-03-10T00:38:31.483Z,8.4
2023-03-10T00:43:58.668Z,11.9
2023-03-10T00:49:56.582Z,9.6
2023-03-10T00:55:09.292Z,10.7
2023-03-10T01:00:56.443Z,10.7
2023-03-10T01:06:28.782Z,8.4
2023-03-10T01:12:13.733Z,9.6
2023-03-10T01:17:23.482Z,9.6
2023-03-10T01:23:20.863Z,9.6
2023-03-10T01:28:40.851Z,10.7
2023-03-10T01:34:21.863Z,10.7
2023-03-10T01:39:46.251Z,13.2
2023-03-10T01:45:42.263Z,9.6
2023-03-10T01:50:52.420Z,13.2
2023-03-10T01:56:40.416Z,7.2
2023-03-10T02:02:25.263Z,8.4
2023-03-10T02:07:35.491Z,10.7
2023-03-10T02:13:27.467Z,13.2
2023-03-10T02:18:43.695Z,11.9
2023-03-10T02:24:30.177Z,11.9
2023-03-10T02:30:13.065Z,9.6
2023-03-10T02:35:49.607Z,9.6
2023-03-10T02:41:15.734Z,13.2
2023-03-10T02:46:51.249Z,11.9
2023-03-10T02:52:34.086Z,10.7
2023-03-10T02:58:04.580Z,10.7
2023-03-10T03:03:24.268Z,8.4
2023-03-10T03:09:22.924Z,11.9
2023-03-10T03:14:46.021Z,8.4
2023-03-10T03:20:32.378Z,9.6
2023-03-10T03:25:44.316Z,9.6
2023-03-10T03:31:41.011Z,9.6
2023-03-10T03:37:00.523Z,9.6
2023-03-10T03:42:22.292Z,9.6
2023-03-10T03:48:26.242Z,10.7
2023-03-10T03:53:39.843Z,10.7
2023-03-10T03:59:11.922Z,9.6
2023-03-10T04:04:57.021Z,10.7
2023-03-10T04:10:21.624Z,9.6
2023-03-10T04:16:05.148Z,9.6
2023-03-10T04:21:36.204Z,8.4
2023-03-10T04:27:02.022Z,8.4
2023-03-10T04:32:49.749Z,8.4
2023-03-10T04:38:34.279Z,7.2
2023-03-10T04:43:42.536Z,7.2
2023-03-10T04:49:32.847Z,7.2
2023-03-10T04:55:12.802Z,8.4
2023-03-10T05:00:23.348Z,9.6
2023-03-10T05:06:17.602Z,9.6
2023-03-10T05:11:48.387Z,7.2
2023-03-10T05:17:11.479Z,7.2
2023-03-10T05:22:44.237Z,11.9
2023-03-10T05:28:34.884Z,5.9
2023-03-10T05:34:11.883Z,8.4
2023-03-10T05:39:28.123Z,8.4
2023-03-10T05:45:25.001Z,9.6
2023-03-10T05:50:46.818Z,9.6
2023-03-10T05:56:14.309Z,9.6
2023-03-10T06:01:39.117Z,11.9
2023-03-10T06:07:21.582Z,7.2
2023-03-10T06:13:13.953Z,4.8
2023-03-10T06:18:29.419Z,7.2
2023-03-10T06:23:56.247Z,4.8
2023-03-10T06:29:54.923Z,8.4
2023-03-10T06:35:31.470Z,8.4
2023-03-10T06:40:51.540Z,13.2
2023-03-10T06:51:47.380Z,10.7
2023-03-10T06:57:38.218Z,10.7
2023-03-10T07:03:20.071Z,7.2
2023-03-10T07:08:35.600Z,5.9
2023-03-10T07:14:36.456Z,11.9
2023-03-10T07:19:59.483Z,11.9
2023-03-10T07:25:23.367Z,11.9
2023-03-10T07:30:57.063Z,11.9
2023-03-10T07:36:47.048Z,10.7
2023-03-10T07:42:10.908Z,10.7
2023-03-10T07:47:57.761Z,10.7
2023-03-10T07:53:17.384Z,8.4
2023-03-10T07:58:54.422Z,10.7
2023-03-10T08:04:44.580Z,10.7
2023-03-10T08:10:13.091Z,5.9
2023-03-10T08:15:30.793Z,7.2
2023-03-10T08:21:17.332Z,4.8
2023-03-10T08:26:49.317Z,8.4
2023-03-10T08:32:24.925Z,5.9
2023-03-10T08:38:04.174Z,9.6
2023-03-10T08:43:36.636Z,7.2
2023-03-10T08:49:10.093Z,10.7
2023-03-10T08:54:47.046Z,9.6
2023-03-10T09:00:10.732Z,8.4
2023-03-10T09:06:00.735Z,10.7
2023-03-10T09:11:06.771Z,8.4
2023-03-10T09:16:43.531Z,13.2
2023-03-10T09:22:18.723Z,8.4
2023-03-10T09:28:15.831Z,13.2
2023-03-10T09:33:30.148Z,13.2
2023-03-10T09:39:15.030Z,15.6
2023-03-10T09:44:45.007Z,13.2
2023-03-10T09:50:24.277Z,13.2
2023-03-10T09:55:47.680Z,13.2
2023-03-10T10:01:42.328Z,11.9
2023-03-10T10:07:02.086Z,10.7
2023-03-10T10:12:48.598Z,11.9
2023-03-10T10:18:20.172Z,14.4
2023-03-10T10:23:45.983Z,13.2
2023-03-10T10:29:13.117Z,16.8
2023-03-10T10:35:08.291Z,14.4
2023-03-10T10:40:35.200Z,14.4
2023-03-10T10:46:13.577Z,16.8
2023-03-10T10:51:57.327Z,16.8
2023-03-10T10:57:24.271Z,11.9
2023-03-10T11:03:04.500Z,15.6
2023-03-10T11:08:32.748Z,11.9
2023-03-10T11:14:06.378Z,14.4
2023-03-10T11:19:45.432Z,13.2
2023-03-10T11:25:26.059Z,13.2
2023-03-10T11:30:38.215Z,13.2
2023-03-10T11:36:10.839Z,9.6
2023-03-10T11:42:04.698Z,14.4
2023-03-10T11:47:47.613Z,14.4
2023-03-10T11:53:23.181Z,15.6
2023-03-10T11:58:48.108Z,14.4
2023-03-10T12:04:31.104Z,14.4
2023-03-10T12:10:03.658Z,14.4
2023-03-10T12:15:39.337Z,14.4
2023-03-10T12:21:06.041Z,16.8
2023-03-10T12:26:32.285Z,13.2
2023-03-10T12:32:03.771Z,14.4
2023-03-10T12:37:39.485Z,11.9
2023-03-10T12:43:12.358Z,13.2
2023-03-10T12:48:38.920Z,13.2
2023-03-10T12:54:21.446Z,15.6
2023-03-10T13:00:09.541Z,15.6
2023-03-10T13:05:30.666Z,16.8
2023-03-10T13:11:06.480Z,16.8
2023-03-10T13:16:34.057Z,18
2023-03-10T13:22:28.502Z,16.8
2023-03-10T13:27:50.476Z,16.8
2023-03-10T13:33:52.134Z,20.4
2023-03-10T13:39:13.208Z,18
2023-03-10T13:44:39.205Z,16.8
2023-03-10T13:50:01.255Z,19.2
2023-03-10T13:55:50.658Z,15.6
2023-03-10T14:01:33.935Z,11.9
2023-03-10T14:06:50.673Z,15.6
2023-03-10T14:12:22.302Z,15.6
2023-03-10T14:18:14.024Z,14.4
2023-03-10T14:23:29.370Z,14.4
2023-03-10T14:29:04.296Z,16.8
2023-03-10T14:34:43.415Z,16.8
2023-03-10T14:40:26.035Z,18
2023-03-10T14:46:04.797Z,15.6
2023-03-10T14:51:51.411Z,16.8
2023-03-10T14:57:10.993Z,15.6
2023-03-10T15:03:04.869Z,10.7
2023-03-10T15:08:13.401Z,15.6
2023-03-10T15:14:11.051Z,14.4
2023-03-10T15:19:23.741Z,11.9
2023-03-10T15:25:13.977Z,13.2
2023-03-10T15:30:39.438Z,15.6
2023-03-10T15:36:01.687Z,18
2023-03-10T15:41:38.869Z,16.8
2023-03-10T15:47:39.211Z,14.4
2023-03-10T15:53:07.111Z,15.6
2023-03-10T15:58:26.258Z,19.2
2023-03-10T16:03:59.283Z,18
2023-03-10T16:09:51.185Z,18
2023-03-10T16:15:26.259Z,14.4
2023-03-10T16:21:04.453Z,18
2023-03-10T16:26:44.824Z,15.6
2023-03-10T16:31:50.625Z,18
2023-03-10T16:37:31.853Z,16.8
2023-03-10T16:42:59.470Z,16.8
2023-03-10T16:48:48.170Z,14.4
2023-03-10T16:54:24.770Z,16.8
2023-03-10T16:59:46.404Z,16.8
2023-03-10T17:05:18.723Z,16.8
2023-03-10T17:11:19.908Z,16.8
2023-03-10T17:16:38.691Z,16.8
2023-03-10T17:22:06.950Z,19.2
2023-03-10T17:27:37.576Z,22.8
2023-03-10T17:33:16.927Z,22.8
2023-03-10T17:38:42.150Z,21.5
2023-03-10T17:44:32.094Z,14.4
2023-03-10T17:50:00.981Z,18
2023-03-10T17:55:26.933Z,16.8
2023-03-10T18:01:08.655Z,14.4
2023-03-10T18:06:53.941Z,14.4
2023-03-10T18:12:38.260Z,13.2
2023-03-10T18:17:56.682Z,13.2
2023-03-10T18:23:47.403Z,13.2
2023-03-10T18:28:57.096Z,18
2023-03-10T18:34:47.489Z,13.2
2023-03-10T18:40:19.998Z,16.8
2023-03-10T18:46:02.363Z,14.4
2023-03-10T18:51:31.146Z,10.7
2023-03-10T18:57:06.355Z,13.2
2023-03-10T19:02:38.638Z,16.8
2023-03-10T19:08:03.261Z,14.4
2023-03-10T19:13:44.489Z,10.7
2023-03-10T19:19:16.746Z,9.6
2023-03-10T19:24:50.539Z,9.6
2023-03-10T19:30:24.378Z,11.9
2023-03-10T19:36:14.922Z,11.9
2023-03-10T19:41:49.942Z,13.2
2023-03-10T19:47:03.413Z,13.2
2023-03-10T19:52:56.779Z,14.4
2023-03-10T19:58:25.273Z,14.4
2023-03-10T20:04:06.076Z,14.4
2023-03-10T20:09:23.330Z,13.2
2023-03-10T20:15:17.568Z,11.9
2023-03-10T20:20:22.479Z,13.2
2023-03-10T20:26:00.742Z,13.2
2023-03-10T20:31:34.224Z,14.4
2023-03-10T20:37:31.406Z,13.2
2023-03-10T20:42:51.035Z,14.4
2023-03-10T20:48:16.398Z,15.6
2023-03-10T20:53:57.981Z,13.2
2023-03-10T20:59:24.560Z,14.4
2023-03-10T21:04:55.169Z,9.6
2023-03-10T21:10:42.794Z,9.6
2023-03-10T21:16:20.749Z,7.2
2023-03-10T21:21:36.509Z,9.6
2023-03-10T21:27:20.378Z,9.6
2023-03-10T21:33:07.748Z,9.6
2023-03-10T21:38:40.399Z,8.4
2023-03-10T21:44:16.002Z,13.2
2023-03-10T21:49:50.442Z,9.6
2023-03-10T21:55:10.651Z,14.4
2023-03-10T22:00:36.857Z,9.6
2023-03-10T22:06:30.389Z,10.7
2023-03-10T22:11:42.664Z,9.6
2023-03-10T22:17:20.663Z,13.2
2023-03-10T22:23:18.123Z,10.7
2023-03-10T22:28:52.210Z,11.9
2023-03-10T22:34:27.635Z,10.7
2023-03-10T22:39:40.558Z,8.4
2023-03-10T22:45:24.361Z,9.6
2023-03-10T22:50:59.573Z,10.7
2023-03-10T22:56:20.740Z,10.7
2023-03-10T23:01:54.885Z,7.2
2023-03-10T23:07:35.348Z,8.4
2023-03-10T23:12:59.850Z,8.4
2023-03-10T23:18:56.479Z,9.6
2023-03-10T23:24:18.545Z,13.2
2023-03-10T23:29:45.874Z,8.4
2023-03-10T23:35:22.277Z,5.9
2023-03-10T23:41:15.067Z,10.7
2023-03-10T23:46:22.289Z,8.4
2023-03-10T23:51:59.534Z,8.4
2023-03-10T23:57:35.676Z,9.6
